Terminal Aerodrome Forecast
Issued by NWS

Home | Current Version | Previous Version | Text Only | Print | Product List | Glossary On
Versions: 1 2 3 4 5 6 7 8 9 10 11 12 13 14 15
000
FTUS43 KGRB 301700
TAFATW
TAF
KATW 301727Z 3018/0118 04007KT P6SM OVC012
     FM302300 07005KT P6SM BKN018
      TEMPO 3023/0103 SCT018 SCT250
     FM010500 VRB03KT 5SM BR SCT006 OVC012
      TEMPO 0109/0113 2SM BR BKN006
     FM011500 15006KT P6SM BKN015 OVC040=

USA.gov is the U.S. government's official web portal to all federal, state and local government web resources and services.